Seattle, Washington
Traffic Map
Current Weather Conditions
Seattle, Washington
Overcast Moderate Rain
Overcast
44°
Feels Like: 41°
Wind Chill: 41° Ceiling: 3300
Heat Index: 44° Visibility: 3mi
Dew Point: 44° Wind: 6mph
Humidity: 100% Direction: 140° (SE)
Pressure: 29.53in Gusts: 0mph
Raw Report DataKBFI 180553Z 14005KT 3SM RA BR SCT008 SCT016 OVC033 07/07 A2953 RMK AO2 SLP998 P0010 60082 T00670067 10072 20061 55004
Traffic Incident Summary
Active as of:
Severity:
Category:
InformationThere was an issue retrieving the traffic information for this location. Please try a different location or try again shortly.
Advertisements
Track Severe Weather on mobile